Time;durP1;ratioP1;P1;durP2;ratioP2;P2;SDS_P1;SDS_P2;PMS_P1;PMS_P2;Temp;Humidity;BMP_temperature;BMP_pressure;BME280_temperature;BME280_humidity;BME280_pressure;Samples;Min_cycle;Max_cycle;Signal;HPM_P1;HPM_P2
2022/10/09 00:00:24;;;;;;;9.60;3.60;;;;;;;;;;5084942;28;20403;-78
2022/10/09 00:02:50;;;;;;;7.95;3.80;;;;;;;;;;5089814;28;20417;-79
2022/10/09 00:05:19;;;;;;;9.80;3.55;;;;;;;;;;5086240;28;20410;-80
2022/10/09 00:07:46;;;;;;;8.20;3.92;;;;;;;;;;5086226;28;20469;-79
2022/10/09 00:10:12;;;;;;;10.95;4.18;;;;;;;;;;5086654;28;20904;-80
2022/10/09 00:12:38;;;;;;;7.97;4.07;;;;;;;;;;5087463;28;20429;-79
2022/10/09 00:15:05;;;;;;;9.60;4.50;;;;;;;;;;5086750;28;20406;-79
2022/10/09 00:17:32;;;;;;;8.63;4.43;;;;;;;;;;5088320;28;20927;-79
2022/10/09 00:19:58;;;;;;;9.80;3.80;;;;;;;;;;5086003;28;20425;-79
2022/10/09 00:22:26;;;;;;;5.80;3.70;;;;;;;;;;5087930;28;20776;-79
2022/10/09 00:24:52;;;;;;;11.77;4.40;;;;;;;;;;5088061;28;20436;-79
2022/10/09 00:27:18;;;;;;;9.30;4.00;;;;;;;;;;5084600;28;20430;-80
2022/10/09 00:29:45;;;;;;;6.85;3.70;;;;;;;;;;5086895;28;20516;-80
2022/10/09 00:32:11;;;;;;;8.85;4.47;;;;;;;;;;5083707;28;20429;-80
2022/10/09 00:34:38;;;;;;;9.50;3.90;;;;;;;;;;5084774;28;20425;-79
2022/10/09 00:37:04;;;;;;;10.13;3.83;;;;;;;;;;5084417;28;20430;-79
2022/10/09 00:39:32;;;;;;;7.73;3.50;;;;;;;;;;5086856;28;20418;-79
2022/10/09 00:41:58;;;;;;;6.60;3.80;;;;;;;;;;5086325;28;20423;-79
2022/10/09 00:44:48;;;;;;;11.10;3.90;;;;;;;;;;5083965;28;20474;-79
2022/10/09 00:47:17;;;;;;;10.02;3.75;;;;;;;;;;5086081;28;20414;-79
2022/10/09 00:49:44;;;;;;;10.63;4.20;;;;;;;;;;5086751;27;20426;-79
2022/10/09 00:52:11;;;;;;;9.53;3.60;;;;;;;;;;5084819;28;20422;-79
2022/10/09 00:54:40;;;;;;;6.40;3.40;;;;;;;;;;5085967;28;20421;-79
2022/10/09 00:57:07;;;;;;;6.40;3.72;;;;;;;;;;5084686;28;20426;-79
2022/10/09 00:59:33;;;;;;;8.40;4.25;;;;;;;;;;5085665;28;20431;-79
2022/10/09 01:02:00;;;;;;;6.82;3.88;;;;;;;;;;5082678;27;20434;-79
2022/10/09 01:04:26;;;;;;;9.27;3.60;;;;;;;;;;5086594;28;20412;-79
2022/10/09 01:07:01;;;;;;;5.80;3.13;;;;;;;;;;5084681;28;20429;-79
2022/10/09 01:09:32;;;;;;;11.77;3.90;;;;;;;;;;5083093;28;20413;-77
2022/10/09 01:12:02;;;;;;;5.95;3.60;;;;;;;;;;5088866;28;20409;-78
2022/10/09 01:14:29;;;;;;;10.80;4.43;;;;;;;;;;5086870;28;20849;-78
2022/10/09 01:16:59;;;;;;;8.50;3.50;;;;;;;;;;5083255;28;20784;-78
2022/10/09 01:19:40;;;;;;;8.23;3.70;;;;;;;;;;5085328;28;20413;-78
2022/10/09 01:22:13;;;;;;;6.07;3.70;;;;;;;;;;5085932;28;20426;-78
2022/10/09 01:24:42;;;;;;;7.57;3.35;;;;;;;;;;5085741;28;20431;-78
2022/10/09 01:27:12;;;;;;;6.15;3.42;;;;;;;;;;5081531;28;20430;-78
2022/10/09 01:29:40;;;;;;;6.93;3.20;;;;;;;;;;5083237;28;20430;-78
2022/10/09 01:32:08;;;;;;;8.43;3.60;;;;;;;;;;5082457;28;20431;-78
2022/10/09 01:34:35;;;;;;;7.87;3.77;;;;;;;;;;5085506;28;20415;-78
2022/10/09 01:37:03;;;;;;;7.75;3.70;;;;;;;;;;5085358;28;20426;-78
2022/10/09 01:39:30;;;;;;;8.60;3.63;;;;;;;;;;5083905;28;20426;-78
2022/10/09 01:41:57;;;;;;;10.43;3.80;;;;;;;;;;5086137;28;20828;-77
2022/10/09 01:44:27;;;;;;;7.90;3.83;;;;;;;;;;5084102;28;20429;-78
2022/10/09 01:46:55;;;;;;;7.65;3.50;;;;;;;;;;5085890;28;20420;-78
2022/10/09 01:49:27;;;;;;;10.80;3.97;;;;;;;;;;5082965;28;20426;-79
2022/10/09 01:51:57;;;;;;;6.37;3.50;;;;;;;;;;5083285;27;20426;-77
2022/10/09 01:54:27;;;;;;;12.57;4.28;;;;;;;;;;5082347;28;20425;-77
2022/10/09 01:56:55;;;;;;;9.00;3.70;;;;;;;;;;5082714;27;20424;-80
2022/10/09 01:59:23;;;;;;;10.00;4.00;;;;;;;;;;5081478;28;20431;-79
2022/10/09 02:01:51;;;;;;;9.88;3.90;;;;;;;;;;5082426;28;20960;-79
2022/10/09 02:04:18;;;;;;;9.07;3.75;;;;;;;;;;5082634;28;20431;-79
2022/10/09 02:06:45;;;;;;;8.38;4.15;;;;;;;;;;5084839;28;20419;-78
2022/10/09 02:09:14;;;;;;;7.47;3.78;;;;;;;;;;5085578;28;20477;-78
2022/10/09 02:11:41;;;;;;;9.18;3.97;;;;;;;;;;5081891;28;20429;-78
2022/10/09 02:14:08;;;;;;;9.80;3.90;;;;;;;;;;5085657;28;20580;-78
2022/10/09 02:16:36;;;;;;;7.18;3.58;;;;;;;;;;5084200;28;21020;-78
2022/10/09 02:19:06;;;;;;;5.47;3.83;;;;;;;;;;5085072;28;20438;-78
2022/10/09 02:21:38;;;;;;;9.52;3.83;;;;;;;;;;5083613;28;20423;-78
2022/10/09 02:24:06;;;;;;;10.23;3.85;;;;;;;;;;5082949;28;20433;-78
2022/10/09 02:26:33;;;;;;;8.18;3.47;;;;;;;;;;5082627;27;20422;-78
2022/10/09 02:28:59;;;;;;;12.23;4.28;;;;;;;;;;5084659;28;20423;-78
2022/10/09 02:31:27;;;;;;;6.30;4.20;;;;;;;;;;5085411;28;20413;-80
2022/10/09 02:33:57;;;;;;;6.65;3.97;;;;;;;;;;5084493;28;20765;-78
2022/10/09 02:36:25;;;;;;;10.10;4.17;;;;;;;;;;5084638;28;20530;-78
2022/10/09 02:38:52;;;;;;;10.98;4.20;;;;;;;;;;5086616;28;20425;-78
2022/10/09 02:41:18;;;;;;;10.98;5.07;;;;;;;;;;5086165;28;20447;-79
2022/10/09 02:43:45;;;;;;;12.60;4.73;;;;;;;;;;5085245;28;20402;-79
2022/10/09 02:46:11;;;;;;;10.25;4.60;;;;;;;;;;5081793;28;20419;-78
2022/10/09 02:48:37;;;;;;;8.25;4.20;;;;;;;;;;5085166;28;20425;-78
2022/10/09 02:51:04;;;;;;;9.23;4.65;;;;;;;;;;5083026;28;20411;-78
2022/10/09 02:53:31;;;;;;;7.28;4.13;;;;;;;;;;5084895;28;20426;-78
2022/10/09 02:55:58;;;;;;;12.13;4.53;;;;;;;;;;5086863;28;20415;-79
2022/10/09 02:58:25;;;;;;;13.57;4.80;;;;;;;;;;5080520;28;20410;-80
2022/10/09 03:00:53;;;;;;;8.53;4.10;;;;;;;;;;5081869;28;20843;-79
2022/10/09 03:03:20;;;;;;;7.50;4.43;;;;;;;;;;5087117;28;20422;-79
2022/10/09 03:05:50;;;;;;;11.40;3.92;;;;;;;;;;5086215;28;20415;-79
2022/10/09 03:08:17;;;;;;;11.00;4.03;;;;;;;;;;5085143;28;20431;-79
2022/10/09 03:10:45;;;;;;;11.00;4.50;;;;;;;;;;5087321;28;20424;-78
2022/10/09 03:13:11;;;;;;;9.00;4.50;;;;;;;;;;5081341;28;20431;-78
2022/10/09 03:15:37;;;;;;;8.80;4.32;;;;;;;;;;5084186;28;20432;-78
2022/10/09 03:18:04;;;;;;;8.80;4.28;;;;;;;;;;5084032;28;21422;-78
2022/10/09 03:20:30;;;;;;;8.68;4.00;;;;;;;;;;5081770;27;20511;-78
2022/10/09 03:22:57;;;;;;;7.25;4.18;;;;;;;;;;5083110;28;20430;-78
2022/10/09 03:25:23;;;;;;;11.52;4.80;;;;;;;;;;5084114;28;20414;-80
2022/10/09 03:27:51;;;;;;;6.88;4.32;;;;;;;;;;5083204;28;20881;-77
2022/10/09 03:30:17;;;;;;;8.85;4.57;;;;;;;;;;5084344;27;20422;-80
2022/10/09 03:32:44;;;;;;;7.20;3.85;;;;;;;;;;5082416;28;20423;-77
2022/10/09 03:35:10;;;;;;;11.40;4.78;;;;;;;;;;5080542;27;20438;-78
2022/10/09 03:37:37;;;;;;;7.70;3.90;;;;;;;;;;5082278;28;20525;-78
2022/10/09 03:40:03;;;;;;;6.57;4.10;;;;;;;;;;5082214;28;20392;-78
2022/10/09 03:42:29;;;;;;;11.73;4.45;;;;;;;;;;5083917;28;20439;-80
2022/10/09 03:44:59;;;;;;;8.77;4.07;;;;;;;;;;5079484;28;20428;-80
2022/10/09 03:47:26;;;;;;;6.82;4.10;;;;;;;;;;5082377;28;20904;-80
2022/10/09 03:49:53;;;;;;;5.32;3.65;;;;;;;;;;5083990;28;20415;-80
2022/10/09 03:52:19;;;;;;;4.90;3.90;;;;;;;;;;5083131;28;20434;-78
2022/10/09 03:54:46;;;;;;;6.95;3.90;;;;;;;;;;5085088;28;20427;-78
2022/10/09 03:57:12;;;;;;;8.40;4.40;;;;;;;;;;5082008;28;20917;-80
2022/10/09 03:59:39;;;;;;;5.78;4.25;;;;;;;;;;5081992;28;20446;-81
2022/10/09 04:02:06;;;;;;;8.87;4.70;;;;;;;;;;5084207;28;20962;-78
2022/10/09 04:04:33;;;;;;;6.43;4.93;;;;;;;;;;5080333;28;20491;-78
2022/10/09 04:06:59;;;;;;;5.40;4.50;;;;;;;;;;5082330;28;20788;-78
2022/10/09 04:09:25;;;;;;;9.48;4.50;;;;;;;;;;5082728;28;20414;-78
2022/10/09 04:11:52;;;;;;;8.63;4.47;;;;;;;;;;5083454;28;20919;-78
2022/10/09 04:14:18;;;;;;;11.07;5.40;;;;;;;;;;5083830;28;20428;-78
2022/10/09 04:16:45;;;;;;;13.57;5.80;;;;;;;;;;5083296;28;20431;-78
2022/10/09 04:19:13;;;;;;;7.17;5.00;;;;;;;;;;5086824;28;20824;-80
2022/10/09 04:21:39;;;;;;;9.70;5.03;;;;;;;;;;5083432;28;20433;-80
2022/10/09 04:24:07;;;;;;;8.80;5.68;;;;;;;;;;5082169;28;20410;-80
2022/10/09 04:26:33;;;;;;;8.65;5.10;;;;;;;;;;5082394;28;20501;-81
2022/10/09 04:29:00;;;;;;;9.75;5.60;;;;;;;;;;5085068;28;20423;-80
2022/10/09 04:31:26;;;;;;;9.57;4.70;;;;;;;;;;5082880;28;20494;-78
2022/10/09 04:33:54;;;;;;;8.45;4.78;;;;;;;;;;5079288;28;20428;-78
2022/10/09 04:36:21;;;;;;;7.57;5.20;;;;;;;;;;5084862;28;20431;-78
2022/10/09 04:38:49;;;;;;;8.00;5.00;;;;;;;;;;5086436;28;20426;-78
2022/10/09 04:41:15;;;;;;;6.90;5.23;;;;;;;;;;5086645;28;20459;-79
2022/10/09 04:43:41;;;;;;;10.57;5.70;;;;;;;;;;5085171;28;20427;-80
2022/10/09 04:46:10;;;;;;;8.85;6.45;;;;;;;;;;5086956;28;20414;-78
2022/10/09 04:48:37;;;;;;;11.23;5.83;;;;;;;;;;5086114;28;20419;-78
2022/10/09 04:51:05;;;;;;;12.32;6.32;;;;;;;;;;5086626;28;20414;-80
2022/10/09 04:53:33;;;;;;;10.82;6.75;;;;;;;;;;5089228;28;20440;-80
2022/10/09 04:56:01;;;;;;;10.15;5.45;;;;;;;;;;5084979;28;20418;-78
2022/10/09 04:58:28;;;;;;;10.63;5.80;;;;;;;;;;5086594;28;20419;-78
2022/10/09 05:00:54;;;;;;;10.00;6.40;;;;;;;;;;5086022;28;20437;-78
2022/10/09 05:03:20;;;;;;;11.65;6.63;;;;;;;;;;5085786;28;20952;-78
2022/10/09 05:05:47;;;;;;;11.60;7.00;;;;;;;;;;5085265;28;20411;-78
2022/10/09 05:08:14;;;;;;;9.93;6.80;;;;;;;;;;5083511;28;20427;-78
2022/10/09 05:10:41;;;;;;;9.52;7.03;;;;;;;;;;5083779;28;20704;-78
2022/10/09 05:13:08;;;;;;;11.10;6.25;;;;;;;;;;5085673;28;20450;-78
2022/10/09 05:15:36;;;;;;;11.38;7.00;;;;;;;;;;5088367;28;20419;-78
2022/10/09 05:18:02;;;;;;;10.90;6.97;;;;;;;;;;5085817;28;20434;-78
2022/10/09 05:20:28;;;;;;;10.48;6.60;;;;;;;;;;5086115;28;20447;-78
2022/10/09 05:22:55;;;;;;;10.63;6.80;;;;;;;;;;5088529;28;21098;-78
2022/10/09 05:25:21;;;;;;;9.90;6.65;;;;;;;;;;5086002;28;20416;-78
2022/10/09 05:27:49;;;;;;;8.73;6.27;;;;;;;;;;5088099;28;20433;-78
2022/10/09 05:30:15;;;;;;;9.27;6.63;;;;;;;;;;5082511;27;20415;-78
2022/10/09 05:32:41;;;;;;;10.00;6.80;;;;;;;;;;5086544;28;20407;-78
2022/10/09 05:35:08;;;;;;;9.20;6.80;;;;;;;;;;5085419;28;20410;-78
2022/10/09 05:37:35;;;;;;;12.77;7.28;;;;;;;;;;5085203;28;20945;-78
2022/10/09 05:40:02;;;;;;;12.25;7.43;;;;;;;;;;5083692;28;20921;-78
2022/10/09 05:42:28;;;;;;;10.93;6.65;;;;;;;;;;5085661;28;20419;-78
2022/10/09 05:44:56;;;;;;;9.73;7.53;;;;;;;;;;5082940;28;20432;-78
2022/10/09 05:47:22;;;;;;;13.40;7.85;;;;;;;;;;5078213;28;21022;-78
2022/10/09 05:49:49;;;;;;;9.27;7.50;;;;;;;;;;5082763;28;20438;-78
2022/10/09 05:52:15;;;;;;;11.07;6.63;;;;;;;;;;5086775;28;20912;-78
2022/10/09 05:54:42;;;;;;;9.55;7.20;;;;;;;;;;5083662;28;20422;-78
2022/10/09 05:57:08;;;;;;;12.77;7.90;;;;;;;;;;5083961;28;20431;-78
2022/10/09 05:59:35;;;;;;;12.05;8.50;;;;;;;;;;5081665;28;20432;-78
2022/10/09 06:02:02;;;;;;;13.82;8.40;;;;;;;;;;5082985;28;20415;-78
2022/10/09 06:04:29;;;;;;;12.45;8.75;;;;;;;;;;5083593;28;20438;-78
2022/10/09 06:06:55;;;;;;;11.57;8.60;;;;;;;;;;5084468;28;20422;-78
2022/10/09 06:09:23;;;;;;;13.88;9.30;;;;;;;;;;5086405;28;20430;-78
2022/10/09 06:11:50;;;;;;;11.20;9.23;;;;;;;;;;5082797;28;20418;-78
2022/10/09 06:14:17;;;;;;;10.32;8.43;;;;;;;;;;5091592;28;20483;-78
2022/10/09 06:16:44;;;;;;;13.03;7.47;;;;;;;;;;5084239;28;20417;-78
2022/10/09 06:19:13;;;;;;;15.10;9.38;;;;;;;;;;5086753;28;20423;-78
2022/10/09 06:21:39;;;;;;;11.65;8.95;;;;;;;;;;5078424;28;20430;-78
2022/10/09 06:24:06;;;;;;;11.60;9.25;;;;;;;;;;5085415;28;20406;-78
2022/10/09 06:26:33;;;;;;;15.05;9.48;;;;;;;;;;5082644;28;20473;-78
2022/10/09 06:29:01;;;;;;;15.07;10.20;;;;;;;;;;5083220;28;20438;-78
2022/10/09 06:31:28;;;;;;;13.38;9.45;;;;;;;;;;5080714;28;20488;-78
2022/10/09 06:33:54;;;;;;;12.60;9.40;;;;;;;;;;5083467;28;20418;-78
2022/10/09 06:36:23;;;;;;;15.98;9.50;;;;;;;;;;5082189;28;20942;-78
2022/10/09 06:38:50;;;;;;;12.70;9.85;;;;;;;;;;5081203;28;20912;-78
2022/10/09 06:41:17;;;;;;;15.30;10.65;;;;;;;;;;5084730;28;20421;-78
2022/10/09 06:43:48;;;;;;;17.38;10.63;;;;;;;;;;5079789;28;20427;-78
2022/10/09 06:46:14;;;;;;;17.65;11.48;;;;;;;;;;5080345;28;20432;-78
2022/10/09 06:48:41;;;;;;;19.25;12.32;;;;;;;;;;5082502;28;20426;-78
2022/10/09 06:51:08;;;;;;;19.00;12.60;;;;;;;;;;5078882;28;20423;-78
2022/10/09 06:53:36;;;;;;;19.23;12.85;;;;;;;;;;5078774;28;20442;-78
2022/10/09 06:56:05;;;;;;;18.98;13.65;;;;;;;;;;5083526;28;20422;-78
2022/10/09 06:58:33;;;;;;;15.90;12.45;;;;;;;;;;5085607;28;20433;-78
2022/10/09 07:01:03;;;;;;;25.08;13.18;;;;;;;;;;5082516;27;20423;-78
2022/10/09 07:03:30;;;;;;;18.20;12.70;;;;;;;;;;5090766;28;20427;-79
2022/10/09 07:06:05;;;;;;;24.02;13.65;;;;;;;;;;5091423;28;20425;-78
2022/10/09 07:08:34;;;;;;;22.77;13.90;;;;;;;;;;5088653;28;20440;-81
2022/10/09 07:11:07;;;;;;;16.40;13.00;;;;;;;;;;5090822;28;20422;-79
2022/10/09 07:13:33;;;;;;;23.38;13.95;;;;;;;;;;5088941;28;20436;-79
2022/10/09 07:16:02;;;;;;;21.40;14.27;;;;;;;;;;5091381;28;20493;-79
2022/10/09 07:18:29;;;;;;;21.60;14.10;;;;;;;;;;5089592;28;20427;-79
2022/10/09 07:20:56;;;;;;;25.63;14.45;;;;;;;;;;5091998;28;20406;-79
2022/10/09 07:23:22;;;;;;;19.10;13.70;;;;;;;;;;5093458;28;20440;-79
2022/10/09 07:25:48;;;;;;;24.00;14.93;;;;;;;;;;5089331;28;20426;-79
2022/10/09 07:28:16;;;;;;;21.15;13.73;;;;;;;;;;5094147;28;20431;-79
2022/10/09 07:30:43;;;;;;;22.85;13.23;;;;;;;;;;5088890;28;20415;-79
2022/10/09 07:33:09;;;;;;;23.33;14.10;;;;;;;;;;5092896;28;20437;-79
2022/10/09 07:35:36;;;;;;;20.58;13.77;;;;;;;;;;5091864;28;20414;-79
2022/10/09 07:38:09;;;;;;;22.95;13.23;;;;;;;;;;5092437;28;20433;-79
2022/10/09 07:40:37;;;;;;;21.30;13.07;;;;;;;;;;5090480;28;20407;-79
2022/10/09 07:43:03;;;;;;;21.60;13.40;;;;;;;;;;5091414;28;20433;-79
2022/10/09 07:45:34;;;;;;;25.17;13.30;;;;;;;;;;5092841;28;20405;-79
2022/10/09 07:48:02;;;;;;;18.73;13.25;;;;;;;;;;5092888;28;20450;-79
2022/10/09 07:50:28;;;;;;;18.05;12.38;;;;;;;;;;5091951;28;20795;-79
2022/10/09 07:52:54;;;;;;;18.45;12.68;;;;;;;;;;5094194;28;20430;-79
2022/10/09 07:55:22;;;;;;;19.08;13.10;;;;;;;;;;5091945;28;20401;-78
2022/10/09 07:57:48;;;;;;;19.75;12.98;;;;;;;;;;5096059;28;20407;-79
2022/10/09 08:00:15;;;;;;;18.50;11.60;;;;;;;;;;5085679;28;20434;-79
2022/10/09 08:02:43;;;;;;;17.88;11.77;;;;;;;;;;5106719;28;20414;-79
2022/10/09 08:05:11;;;;;;;16.55;11.48;;;;;;;;;;5095238;28;20414;-79
2022/10/09 08:07:38;;;;;;;14.40;11.20;;;;;;;;;;5095372;28;20430;-79
2022/10/09 08:10:06;;;;;;;16.42;10.13;;;;;;;;;;5093019;28;20418;-79
2022/10/09 08:12:32;;;;;;;16.80;11.33;;;;;;;;;;5099094;28;20429;-79
2022/10/09 08:15:00;;;;;;;19.23;10.75;;;;;;;;;;5096760;28;20424;-79
2022/10/09 08:17:27;;;;;;;13.32;10.32;;;;;;;;;;5127065;27;20831;-79
2022/10/09 08:19:56;;;;;;;14.57;10.05;;;;;;;;;;5094239;28;20427;-79
2022/10/09 08:22:23;;;;;;;14.82;11.00;;;;;;;;;;5095468;28;20424;-79
2022/10/09 08:24:49;;;;;;;17.33;12.10;;;;;;;;;;5097941;28;20447;-78
2022/10/09 08:27:18;;;;;;;14.15;10.55;;;;;;;;;;5096320;28;20424;-79
2022/10/09 08:29:44;;;;;;;14.30;10.02;;;;;;;;;;5097440;28;20432;-79
2022/10/09 08:32:11;;;;;;;16.27;10.40;;;;;;;;;;5093539;28;20785;-78
2022/10/09 08:34:40;;;;;;;13.00;9.80;;;;;;;;;;5095796;28;20434;-79
2022/10/09 08:37:11;;;;;;;15.57;10.33;;;;;;;;;;5094116;28;20878;-79
2022/10/09 08:39:37;;;;;;;13.77;10.20;;;;;;;;;;5097145;28;20455;-78
2022/10/09 08:42:05;;;;;;;16.60;9.80;;;;;;;;;;5105971;27;20414;-78
2022/10/09 08:44:36;;;;;;;15.45;10.10;;;;;;;;;;5092976;28;20437;-79
2022/10/09 08:47:07;;;;;;;16.35;10.02;;;;;;;;;;5097504;28;20411;-78
2022/10/09 08:49:40;;;;;;;14.00;9.18;;;;;;;;;;5093102;28;20440;-78
2022/10/09 08:52:14;;;;;;;13.05;9.60;;;;;;;;;;5096488;28;20943;-79
2022/10/09 08:54:41;;;;;;;15.75;9.77;;;;;;;;;;5092275;28;20419;-79
2022/10/09 08:57:10;;;;;;;14.20;9.23;;;;;;;;;;5097500;28;20416;-79
2022/10/09 08:59:39;;;;;;;13.63;8.32;;;;;;;;;;5093312;28;20505;-79
2022/10/09 09:02:12;;;;;;;13.13;7.43;;;;;;;;;;5102050;27;20489;-79
2022/10/09 09:04:46;;;;;;;12.73;8.63;;;;;;;;;;5092812;28;20913;-78
2022/10/09 09:07:23;;;;;;;15.40;8.60;;;;;;;;;;5091222;28;20425;-81
2022/10/09 09:09:52;;;;;;;18.60;8.90;;;;;;;;;;5095438;28;20455;-78
2022/10/09 09:12:21;;;;;;;12.48;8.20;;;;;;;;;;5114218;27;20424;-78
2022/10/09 09:14:54;;;;;;;13.63;7.30;;;;;;;;;;5092764;28;20416;-78
2022/10/09 09:17:29;;;;;;;12.65;7.88;;;;;;;;;;5093169;28;20422;-80
2022/10/09 09:20:03;;;;;;;11.10;7.70;;;;;;;;;;5089858;28;20432;-78
2022/10/09 09:22:32;;;;;;;14.95;9.13;;;;;;;;;;5098893;28;20404;-78
2022/10/09 09:27:39;;;;;;;9.63;7.60;;;;;;;;;;5093383;28;20412;-78
2022/10/09 09:30:14;;;;;;;12.38;7.13;;;;;;;;;;5092039;28;20431;-78
2022/10/09 09:32:43;;;;;;;11.70;6.57;;;;;;;;;;5090572;28;20427;-78
2022/10/09 09:35:16;;;;;;;11.55;6.10;;;;;;;;;;5091579;27;20423;-78
2022/10/09 09:37:52;;;;;;;11.93;6.95;;;;;;;;;;5091761;28;20437;-79
2022/10/09 09:40:19;;;;;;;9.77;6.20;;;;;;;;;;5093976;28;20457;-79
2022/10/09 09:42:46;;;;;;;12.18;6.00;;;;;;;;;;5090950;28;20472;-79
2022/10/09 09:45:16;;;;;;;13.43;6.28;;;;;;;;;;5082294;27;20428;-80
2022/10/09 09:47:44;;;;;;;10.20;5.50;;;;;;;;;;5118533;27;20431;-81
2022/10/09 09:50:11;;;;;;;9.73;5.40;;;;;;;;;;5088547;28;20452;-78
2022/10/09 09:52:39;;;;;;;11.60;5.63;;;;;;;;;;5089225;28;20499;-79
2022/10/09 09:55:21;;;;;;;10.53;5.40;;;;;;;;;;5093183;28;20823;-79
2022/10/09 09:57:49;;;;;;;10.00;5.70;;;;;;;;;;5093495;28;20427;-79
2022/10/09 10:00:20;;;;;;;12.55;5.88;;;;;;;;;;5090468;28;20415;-80
2022/10/09 10:02:49;;;;;;;9.60;4.80;;;;;;;;;;5092087;28;20447;-79
2022/10/09 10:05:26;;;;;;;12.60;4.70;;;;;;;;;;5089976;28;20410;-78
2022/10/09 10:07:52;;;;;;;8.63;4.30;;;;;;;;;;5091658;28;20435;-79
2022/10/09 10:10:22;;;;;;;7.38;3.85;;;;;;;;;;5092520;28;20393;-81
2022/10/09 10:12:53;;;;;;;12.48;3.85;;;;;;;;;;5092597;28;20406;-78
2022/10/09 10:15:25;;;;;;;11.20;4.10;;;;;;;;;;5091325;28;20893;-79
2022/10/09 10:18:01;;;;;;;6.65;3.50;;;;;;;;;;5091378;28;20449;-79
2022/10/09 10:20:29;;;;;;;11.15;3.70;;;;;;;;;;5092348;28;20428;-81
2022/10/09 10:22:56;;;;;;;9.48;3.17;;;;;;;;;;5092239;28;20515;-81
2022/10/09 10:25:26;;;;;;;6.18;3.00;;;;;;;;;;5090465;28;20765;-78
2022/10/09 10:27:56;;;;;;;8.52;3.20;;;;;;;;;;5095506;28;20408;-79
2022/10/09 10:30:22;;;;;;;7.07;3.20;;;;;;;;;;5091647;28;20398;-79
2022/10/09 10:32:52;;;;;;;10.13;2.80;;;;;;;;;;5087575;28;20442;-79
2022/10/09 10:35:20;;;;;;;11.30;3.20;;;;;;;;;;5087012;28;20465;-80
2022/10/09 10:37:49;;;;;;;9.07;3.10;;;;;;;;;;5089225;28;20428;-79
2022/10/09 10:40:20;;;;;;;8.38;4.75;;;;;;;;;;5085895;28;20439;-80
2022/10/09 10:42:55;;;;;;;7.50;3.17;;;;;;;;;;5082414;28;20519;-80
2022/10/09 10:45:25;;;;;;;11.93;3.47;;;;;;;;;;5084125;28;20410;-80
2022/10/09 10:47:53;;;;;;;7.25;2.30;;;;;;;;;;5088177;28;20457;-79
2022/10/09 10:50:20;;;;;;;10.15;2.90;;;;;;;;;;5087607;28;20401;-79
2022/10/09 10:52:53;;;;;;;4.78;2.60;;;;;;;;;;5086424;28;20476;-79
2022/10/09 10:55:25;;;;;;;8.80;2.67;;;;;;;;;;5088337;28;20420;-80
2022/10/09 10:57:56;;;;;;;7.55;3.15;;;;;;;;;;5084953;28;20414;-80
2022/10/09 11:00:22;;;;;;;6.20;2.63;;;;;;;;;;5086480;28;20424;-80
2022/10/09 11:02:58;;;;;;;7.88;2.28;;;;;;;;;;5088216;28;20420;-79
2022/10/09 11:05:28;;;;;;;9.18;3.10;;;;;;;;;;5086140;27;20414;-80
2022/10/09 11:08:02;;;;;;;7.15;2.60;;;;;;;;;;5086156;28;20426;-80
2022/10/09 11:10:31;;;;;;;7.03;2.70;;;;;;;;;;5083933;28;20468;-81
2022/10/09 11:13:03;;;;;;;9.93;2.60;;;;;;;;;;5089249;28;20415;-79
2022/10/09 11:15:36;;;;;;;7.00;2.45;;;;;;;;;;5088085;28;20416;-80
2022/10/09 11:18:10;;;;;;;8.68;2.70;;;;;;;;;;5086994;28;20503;-79
2022/10/09 11:20:54;;;;;;;9.25;2.60;;;;;;;;;;5086760;28;20419;-80
2022/10/09 11:23:26;;;;;;;6.40;2.95;;;;;;;;;;5089376;28;20422;-80
2022/10/09 11:25:55;;;;;;;6.20;2.70;;;;;;;;;;5089206;28;20793;-80
2022/10/09 11:28:28;;;;;;;5.72;2.75;;;;;;;;;;5085162;28;20416;-80
2022/10/09 11:30:57;;;;;;;7.60;2.67;;;;;;;;;;5087002;28;20805;-79
2022/10/09 11:33:34;;;;;;;8.10;2.88;;;;;;;;;;5088455;28;20407;-79
2022/10/09 11:36:02;;;;;;;9.50;2.47;;;;;;;;;;5085448;28;20425;-80
2022/10/09 11:38:31;;;;;;;12.60;2.70;;;;;;;;;;5088640;28;20438;-79
2022/10/09 11:40:58;;;;;;;10.52;2.88;;;;;;;;;;5088026;28;20419;-80
2022/10/09 11:43:41;;;;;;;10.55;2.53;;;;;;;;;;5087255;28;20445;-79
2022/10/09 11:46:10;;;;;;;5.47;2.60;;;;;;;;;;5089483;28;20410;-80
2022/10/09 11:48:42;;;;;;;6.93;2.90;;;;;;;;;;5091182;28;20411;-80
2022/10/09 11:51:13;;;;;;;6.28;2.42;;;;;;;;;;5091415;28;20405;-79
2022/10/09 11:53:40;;;;;;;6.10;2.38;;;;;;;;;;5089830;28;20419;-80
2022/10/09 11:56:07;;;;;;;8.52;2.60;;;;;;;;;;5087769;28;20569;-80
2022/10/09 11:58:37;;;;;;;9.82;2.50;;;;;;;;;;5088537;28;20431;-80
2022/10/09 12:01:11;;;;;;;6.45;2.25;;;;;;;;;;5091077;28;20441;-80
2022/10/09 12:03:40;;;;;;;6.82;2.70;;;;;;;;;;5094580;28;20878;-80
2022/10/09 12:06:08;;;;;;;6.28;2.92;;;;;;;;;;5089742;28;20419;-80
2022/10/09 12:08:36;;;;;;;7.78;2.60;;;;;;;;;;5095338;28;20416;-80
2022/10/09 12:11:09;;;;;;;8.63;2.40;;;;;;;;;;5090422;28;20476;-79
2022/10/09 12:13:48;;;;;;;7.90;2.45;;;;;;;;;;5089874;28;20425;-80
2022/10/09 12:16:32;;;;;;;12.45;3.25;;;;;;;;;;5091329;28;20418;-80
2022/10/09 12:19:01;;;;;;;7.30;3.03;;;;;;;;;;5088907;28;20412;-80
2022/10/09 12:21:32;;;;;;;8.77;3.30;;;;;;;;;;5090146;28;20931;-80
2022/10/09 12:23:58;;;;;;;11.90;3.95;;;;;;;;;;5090783;28;20415;-79
2022/10/09 12:26:25;;;;;;;11.63;5.28;;;;;;;;;;5087665;28;20431;-80
2022/10/09 12:28:54;;;;;;;10.15;3.13;;;;;;;;;;5089508;28;20435;-80
2022/10/09 12:31:22;;;;;;;8.67;5.33;;;;;;;;;;5088650;28;20789;-80
2022/10/09 12:33:51;;;;;;;13.75;6.90;;;;;;;;;;5090534;28;20429;-80
2022/10/09 12:36:23;;;;;;;8.35;3.30;;;;;;;;;;5092118;28;20418;-80
2022/10/09 12:38:49;;;;;;;9.93;3.40;;;;;;;;;;5089567;28;20436;-79
2022/10/09 12:41:20;;;;;;;7.20;3.00;;;;;;;;;;5090260;28;20414;-80
2022/10/09 12:43:48;;;;;;;8.50;2.30;;;;;;;;;;5091967;28;20421;-80
2022/10/09 12:46:26;;;;;;;5.57;2.20;;;;;;;;;;5091190;28;20408;-80
2022/10/09 12:48:53;;;;;;;9.48;2.70;;;;;;;;;;5091514;28;20436;-80
2022/10/09 12:51:23;;;;;;;6.35;2.20;;;;;;;;;;5083201;28;20525;-80
2022/10/09 12:53:51;;;;;;;6.32;2.20;;;;;;;;;;5090501;28;21132;-79
2022/10/09 12:56:20;;;;;;;9.50;2.80;;;;;;;;;;5090701;28;20421;-79
2022/10/09 12:58:47;;;;;;;10.87;2.70;;;;;;;;;;5089001;28;20893;-80
2022/10/09 13:01:16;;;;;;;5.47;2.20;;;;;;;;;;5089043;28;20420;-80
2022/10/09 13:03:52;;;;;;;9.00;2.65;;;;;;;;;;5093385;28;20985;-80
2022/10/09 13:06:20;;;;;;;9.00;2.33;;;;;;;;;;5087194;28;20509;-79
2022/10/09 13:08:51;;;;;;;6.35;2.63;;;;;;;;;;5092848;28;20441;-80
2022/10/09 13:11:19;;;;;;;6.85;2.47;;;;;;;;;;5092031;28;20410;-80
2022/10/09 13:13:50;;;;;;;6.60;2.30;;;;;;;;;;5091643;28;20416;-80
2022/10/09 13:16:16;;;;;;;5.47;2.20;;;;;;;;;;5091943;28;20424;-80
2022/10/09 13:18:54;;;;;;;7.10;2.20;;;;;;;;;;5089810;28;21583;-80
2022/10/09 13:21:23;;;;;;;8.57;2.70;;;;;;;;;;5091968;28;20414;-80
2022/10/09 13:23:49;;;;;;;8.73;2.75;;;;;;;;;;5091210;28;20426;-80
2022/10/09 13:26:20;;;;;;;8.85;2.30;;;;;;;;;;5090489;28;20417;-79
2022/10/09 13:28:46;;;;;;;8.00;2.17;;;;;;;;;;5088806;28;20432;-80
2022/10/09 13:31:13;;;;;;;5.32;2.40;;;;;;;;;;5087803;28;20412;-80
2022/10/09 13:33:41;;;;;;;5.97;2.30;;;;;;;;;;5089740;28;20419;-80
2022/10/09 13:36:09;;;;;;;8.32;2.08;;;;;;;;;;5090863;28;20415;-80
2022/10/09 13:38:35;;;;;;;8.07;2.40;;;;;;;;;;5093201;28;20408;-80
2022/10/09 13:41:04;;;;;;;7.82;2.40;;;;;;;;;;5093487;28;20838;-80
2022/10/09 13:43:33;;;;;;;5.00;2.00;;;;;;;;;;5091858;28;20446;-80
2022/10/09 13:46:00;;;;;;;4.80;2.00;;;;;;;;;;5090971;28;20487;-80
2022/10/09 13:48:28;;;;;;;9.02;2.40;;;;;;;;;;5092655;28;20432;-80
2022/10/09 13:50:54;;;;;;;7.35;2.40;;;;;;;;;;5087021;28;20419;-80
2022/10/09 13:53:32;;;;;;;6.15;2.03;;;;;;;;;;5091259;28;20414;-80
2022/10/09 13:55:58;;;;;;;10.80;2.25;;;;;;;;;;5091282;28;20445;-79
2022/10/09 13:58:25;;;;;;;5.45;2.20;;;;;;;;;;5084985;28;23526;-80
2022/10/09 14:00:51;;;;;;;6.63;2.20;;;;;;;;;;5090045;28;20411;-80
2022/10/09 14:03:18;;;;;;;7.38;2.40;;;;;;;;;;5090868;28;20425;-80
2022/10/09 14:05:45;;;;;;;5.78;2.00;;;;;;;;;;5089832;28;20417;-80
2022/10/09 14:08:12;;;;;;;3.90;2.10;;;;;;;;;;5089698;28;20467;-80
2022/10/09 14:10:42;;;;;;;4.60;2.30;;;;;;;;;;5086545;28;20405;-81
2022/10/09 14:13:09;;;;;;;4.55;2.17;;;;;;;;;;5085179;28;20436;-79
2022/10/09 14:15:39;;;;;;;5.10;1.80;;;;;;;;;;5090437;28;20440;-80
2022/10/09 14:18:07;;;;;;;11.75;2.90;;;;;;;;;;5086075;28;20431;-80
2022/10/09 14:20:37;;;;;;;6.28;2.42;;;;;;;;;;5089984;28;20418;-81
2022/10/09 14:23:03;;;;;;;6.47;2.10;;;;;;;;;;5088611;28;20424;-80
2022/10/09 14:25:30;;;;;;;12.18;3.10;;;;;;;;;;5085536;28;20442;-80
2022/10/09 14:27:57;;;;;;;7.43;2.30;;;;;;;;;;5090132;28;20707;-80
2022/10/09 14:30:24;;;;;;;3.95;2.22;;;;;;;;;;5084708;28;20799;-80
2022/10/09 14:32:50;;;;;;;7.30;2.20;;;;;;;;;;5085113;28;21044;-80
2022/10/09 14:35:17;;;;;;;5.43;1.83;;;;;;;;;;5114013;27;20453;-80
2022/10/09 14:37:44;;;;;;;10.50;2.25;;;;;;;;;;5115891;27;20469;-80
2022/10/09 14:40:11;;;;;;;5.80;2.17;;;;;;;;;;5087750;28;20510;-80
2022/10/09 14:42:37;;;;;;;4.57;1.85;;;;;;;;;;5090411;28;20427;-80
2022/10/09 14:45:06;;;;;;;5.20;1.90;;;;;;;;;;5080227;28;20426;-79